Time;durP1;ratioP1;P1;durP2;ratioP2;P2;SDS_P1;SDS_P2;PMS_P1;PMS_P2;Temp;Humidity;BMP_temperature;BMP_pressure;BME280_temperature;BME280_humidity;BME280_pressure;Samples;Min_cycle;Max_cycle;Signal;HPM_P1;HPM_P2
2022/08/22 00:02:44;;;;;;;2.97;2.15;;;16.60;99.90;;;;;;5014961;28;20045;-68
2022/08/22 00:05:30;;;;;;;3.58;2.20;;;16.50;99.90;;;;;;5014317;28;20516;-68
2022/08/22 00:08:06;;;;;;;4.82;2.30;;;16.50;99.90;;;;;;5014575;28;20096;-68
2022/08/22 00:11:02;;;;;;;3.42;2.00;;;16.50;99.90;;;;;;5014320;28;20104;-68
2022/08/22 00:13:52;;;;;;;4.22;2.28;;;16.50;99.90;;;;;;5014356;28;20385;-68
2022/08/22 00:16:55;;;;;;;4.05;2.10;;;16.40;99.90;;;;;;5014075;28;20478;-68
2022/08/22 00:19:44;;;;;;;3.40;2.25;;;16.40;99.90;;;;;;4984450;28;20060;-68
2022/08/22 00:22:19;;;;;;;4.10;2.20;;;16.30;99.90;;;;;;5014569;28;20050;-68
2022/08/22 00:24:50;;;;;;;;;;;16.40;99.90;;;;;;5014851;28;20467;-69
2022/08/22 00:27:40;;;;;;;3.67;2.20;;;16.40;99.90;;;;;;5013942;28;19917;-68
2022/08/22 00:30:12;;;;;;;6.40;2.17;;;16.40;99.90;;;;;;5014138;28;20038;-68
2022/08/22 00:32:58;;;;;;;4.95;2.60;;;16.50;99.90;;;;;;5014114;28;20053;-68
2022/08/22 00:35:46;;;;;;;3.70;2.08;;;16.50;99.90;;;;;;5014665;28;20041;-68
2022/08/22 00:38:18;;;;;;;3.97;2.08;;;16.50;99.90;;;;;;5014273;28;20131;-68
2022/08/22 00:40:44;;;;;;;4.65;2.13;;;16.50;99.90;;;;;;5014528;28;20046;-68
2022/08/22 00:43:56;;;;;;;4.60;2.08;;;16.50;99.90;;;;;;5014361;28;20429;-68
2022/08/22 00:46:40;;;;;;;3.35;1.80;;;16.50;99.90;;;;;;4996820;28;20430;-68
2022/08/22 00:49:33;;;;;;;3.10;1.90;;;16.50;99.90;;;;;;5013498;28;20503;-68
2022/08/22 00:52:10;;;;;;;4.28;2.08;;;16.50;99.90;;;;;;5013750;28;20053;-68
2022/08/22 00:54:53;;;;;;;2.55;1.67;;;16.40;99.90;;;;;;5014566;28;20101;-69
2022/08/22 00:57:22;;;;;;;4.10;1.90;;;16.40;99.90;;;;;;5013160;28;20471;-68
2022/08/22 01:00:12;;;;;;;3.08;1.90;;;16.40;99.90;;;;;;5013669;28;20099;-68
2022/08/22 01:03:06;;;;;;;5.18;2.47;;;16.40;99.90;;;;;;5014387;28;20041;-68
2022/08/22 01:05:31;;;;;;;5.75;2.90;;;16.50;99.90;;;;;;5013615;28;20103;-68
2022/08/22 01:08:36;;;;;;;3.95;2.50;;;16.40;99.90;;;;;;5013523;28;20410;-68
2022/08/22 01:11:04;;;;;;;4.28;2.40;;;16.50;99.90;;;;;;4984368;28;20379;-68
2022/08/22 01:13:43;;;;;;;3.55;2.42;;;16.50;99.90;;;;;;5013507;28;20085;-68
2022/08/22 01:16:25;;;;;;;5.35;2.60;;;16.50;99.90;;;;;;5013542;28;20081;-68
2022/08/22 01:19:45;;;;;;;5.78;2.53;;;16.50;99.90;;;;;;5014331;28;20046;-68
2022/08/22 01:22:34;;;;;;;3.42;2.30;;;16.50;99.90;;;;;;4933505;29;20055;-68
2022/08/22 01:25:18;;;;;;;4.03;2.60;;;16.50;99.90;;;;;;5010549;28;20108;-68
2022/08/22 01:28:07;;;;;;;4.75;2.40;;;16.50;99.90;;;;;;5017689;28;20050;-68
2022/08/22 01:31:10;;;;;;;3.90;2.80;;;16.50;99.90;;;;;;5017480;28;20046;-68
2022/08/22 01:34:00;;;;;;;6.30;2.70;;;16.50;99.90;;;;;;5017316;28;20164;-68
2022/08/22 01:36:28;;;;;;;6.63;2.75;;;16.50;99.90;;;;;;5017373;28;20049;-68
2022/08/22 01:39:26;;;;;;;5.22;2.55;;;16.60;99.90;;;;;;5017270;28;20048;-68
2022/08/22 01:42:21;;;;;;;5.68;2.28;;;16.60;99.90;;;;;;4999949;28;20093;-68
2022/08/22 01:45:20;;;;;;;2.92;2.03;;;16.60;99.90;;;;;;5017032;28;20045;-68
2022/08/22 01:48:10;;;;;;;4.82;2.33;;;16.60;99.90;;;;;;5017222;28;20053;-68
2022/08/22 01:50:42;;;;;;;4.60;2.60;;;16.60;99.90;;;;;;5016913;28;20064;-68
2022/08/22 01:53:35;;;;;;;4.72;2.40;;;16.60;99.90;;;;;;5016063;28;20045;-68
2022/08/22 01:56:18;;;;;;;4.50;2.63;;;16.60;99.90;;;;;;5016971;28;20046;-68
2022/08/22 01:58:53;;;;;;;5.32;2.92;;;16.60;99.90;;;;;;5017524;28;20049;-68
2022/08/22 02:01:27;;;;;;;6.13;2.75;;;16.60;99.90;;;;;;5017705;28;20085;-69
2022/08/22 02:04:20;;;;;;;4.45;2.95;;;16.60;99.90;;;;;;5017377;28;20078;-68
2022/08/22 02:07:07;;;;;;;4.88;3.33;;;16.50;99.90;;;;;;5016316;28;20421;-68
2022/08/22 02:09:51;;;;;;;5.25;2.63;;;16.50;99.90;;;;;;5017361;28;20045;-68
2022/08/22 02:12:41;;;;;;;5.85;3.10;;;16.50;99.90;;;;;;5016544;28;20383;-68
2022/08/22 02:15:31;;;;;;;3.97;2.38;;;16.50;99.90;;;;;;5017098;28;20045;-68
2022/08/22 02:18:07;;;;;;;4.88;2.63;;;16.40;99.90;;;;;;5017445;28;20081;-68
2022/08/22 02:21:19;;;;;;;4.07;2.65;;;16.40;99.90;;;;;;5015158;28;20124;-68
2022/08/22 02:23:53;;;;;;;2.92;2.17;;;16.40;99.90;;;;;;4937274;29;20039;-68
2022/08/22 02:26:38;;;;;;;4.45;2.90;;;16.30;99.90;;;;;;4936608;29;20054;-68
2022/08/22 02:29:11;;;;;;;4.78;2.45;;;16.30;99.90;;;;;;4986829;28;20483;-68
2022/08/22 02:32:01;;;;;;;3.42;2.05;;;16.30;99.90;;;;;;5016914;28;20140;-68
2022/08/22 02:34:42;;;;;;;4.53;1.98;;;16.30;99.90;;;;;;5017112;28;20148;-68
2022/08/22 02:37:20;;;;;;;3.67;2.20;;;16.30;99.90;;;;;;5015383;28;20119;-68
2022/08/22 02:40:23;;;;;;;4.15;2.20;;;16.20;99.90;;;;;;5016174;28;20053;-68
2022/08/22 02:43:17;;;;;;;4.75;2.75;;;16.10;99.90;;;;;;5016228;28;20069;-68
2022/08/22 02:46:00;;;;;;;4.95;3.45;;;16.10;99.90;;;;;;5016085;28;20038;-68
2022/08/22 02:48:35;;;;;;;6.95;3.50;;;16.20;99.90;;;;;;5016537;28;20045;-68
2022/08/22 02:51:35;;;;;;;5.90;3.33;;;16.20;99.90;;;;;;5016777;28;20054;-68
2022/08/22 02:54:19;;;;;;;4.63;3.15;;;16.20;99.90;;;;;;4985463;28;20045;-68
2022/08/22 02:56:56;;;;;;;5.55;3.45;;;16.10;99.90;;;;;;5017727;28;20411;-68
2022/08/22 02:59:38;;;;;;;5.85;3.40;;;16.10;99.90;;;;;;5019136;28;20045;-68
2022/08/22 03:02:31;;;;;;;7.07;3.65;;;16.10;99.90;;;;;;5017614;28;20049;-68
2022/08/22 03:05:13;;;;;;;4.97;3.00;;;16.10;99.90;;;;;;5014781;28;20042;-68
2022/08/22 03:07:47;;;;;;;4.75;2.97;;;16.00;99.90;;;;;;5016214;28;20038;-68
2022/08/22 03:10:38;;;;;;;4.47;3.00;;;15.90;99.90;;;;;;5015652;28;20034;-68
2022/08/22 03:13:12;;;;;;;6.22;3.38;;;16.00;99.90;;;;;;5014922;28;20375;-68
2022/08/22 03:15:59;;;;;;;6.93;3.22;;;15.90;99.90;;;;;;5015559;28;20042;-68
2022/08/22 03:18:49;;;;;;;5.03;3.05;;;15.90;99.90;;;;;;5015966;28;20363;-68
2022/08/22 03:21:43;;;;;;;5.15;3.00;;;15.90;99.90;;;;;;5015704;28;20057;-68
2022/08/22 03:24:37;;;;;;;6.00;3.08;;;15.90;99.90;;;;;;5015271;28;20049;-68
2022/08/22 03:27:12;;;;;;;5.18;3.40;;;15.90;99.90;;;;;;4984989;28;20394;-68
2022/08/22 03:29:50;;;;;;;3.85;2.90;;;15.90;99.90;;;;;;5015535;28;20088;-69
2022/08/22 03:32:20;;;;;;;5.78;3.25;;;15.90;99.90;;;;;;5015733;28;20038;-68
2022/08/22 03:35:09;;;;;;;6.53;3.33;;;15.80;99.90;;;;;;5015331;28;20490;-68
2022/08/22 03:37:39;;;;;;;6.05;3.40;;;15.80;99.90;;;;;;5016215;28;20494;-68
2022/08/22 03:40:20;;;;;;;6.10;3.78;;;15.80;99.90;;;;;;5015050;28;20497;-69
2022/08/22 03:43:23;;;;;;;7.78;3.92;;;15.80;99.90;;;;;;5015059;28;20108;-68
2022/08/22 03:46:21;;;;;;;5.93;3.15;;;15.80;99.90;;;;;;5015516;28;20125;-68
2022/08/22 03:48:56;;;;;;;4.10;3.25;;;15.80;99.90;;;;;;5014622;28;20056;-68
2022/08/22 03:51:27;;;;;;;8.20;3.40;;;15.80;99.90;;;;;;5015474;28;20042;-68
2022/08/22 03:54:28;;;;;;;7.63;3.53;;;15.90;99.90;;;;;;5013435;28;20046;-68
2022/08/22 03:57:27;;;;;;;5.75;3.45;;;15.90;99.90;;;;;;5014371;28;20501;-68
2022/08/22 04:00:26;;;;;;;4.97;3.55;;;16.00;99.90;;;;;;5014644;28;20491;-68
2022/08/22 04:03:10;;;;;;;5.18;3.60;;;16.00;99.90;;;;;;4977375;28;20467;-68
2022/08/22 04:05:42;;;;;;;5.10;3.78;;;16.00;99.90;;;;;;5014587;28;20042;-68
2022/08/22 04:08:24;;;;;;;5.40;3.22;;;16.00;99.90;;;;;;5014513;28;20052;-69
2022/08/22 04:11:08;;;;;;;6.53;3.58;;;16.10;99.90;;;;;;5014992;28;20423;-68
2022/08/22 04:14:12;;;;;;;5.88;3.97;;;16.00;99.90;;;;;;5014983;28;20085;-68
2022/08/22 04:17:07;;;;;;;5.80;3.70;;;16.00;99.90;;;;;;4934710;29;20083;-68
2022/08/22 04:19:59;;;;;;;5.45;3.40;;;16.00;99.90;;;;;;4934508;29;20477;-69
2022/08/22 04:23:02;;;;;;;6.45;3.70;;;16.00;99.90;;;;;;5002418;28;20463;-68
2022/08/22 04:25:46;;;;;;;8.25;3.72;;;16.00;99.90;;;;;;5013997;28;20046;-69
2022/08/22 04:28:21;;;;;;;7.13;3.72;;;16.10;99.90;;;;;;5012262;28;20471;-68
2022/08/22 04:30:51;;;;;;;7.15;3.80;;;16.10;99.90;;;;;;5014558;28;20125;-68
2022/08/22 04:33:24;;;;;;;5.95;3.67;;;16.10;99.90;;;;;;5013977;28;20041;-69
2022/08/22 04:36:09;;;;;;;6.97;3.10;;;16.00;99.90;;;;;;5014034;28;20092;-68
2022/08/22 04:38:46;;;;;;;4.97;3.42;;;16.00;99.90;;;;;;5014051;28;20045;-69
2022/08/22 04:41:48;;;;;;;5.85;3.30;;;16.00;99.90;;;;;;5014029;28;20045;-68
2022/08/22 04:44:28;;;;;;;5.60;3.40;;;16.00;99.90;;;;;;4943320;28;20043;-68
2022/08/22 04:47:23;;;;;;;4.80;3.40;;;16.00;99.90;;;;;;5014472;28;20081;-69
2022/08/22 04:50:34;;;;;;;6.13;3.60;;;16.00;99.90;;;;;;4986888;28;20058;-68
2022/08/22 04:53:31;;;;;;;6.05;3.70;;;16.10;99.90;;;;;;4996378;28;20046;-68
2022/08/22 04:56:21;;;;;;;6.45;3.90;;;16.10;99.90;;;;;;5014498;28;20049;-69
2022/08/22 04:58:58;;;;;;;4.10;3.33;;;16.10;99.90;;;;;;5013830;28;20052;-69
2022/08/22 05:01:46;;;;;;;5.13;3.35;;;16.10;99.90;;;;;;5013342;28;20042;-69
2022/08/22 05:04:23;;;;;;;5.60;3.40;;;16.10;99.90;;;;;;5014175;28;20120;-68
2022/08/22 05:07:01;;;;;;;5.70;3.53;;;16.10;99.90;;;;;;5013685;28;20095;-69
2022/08/22 05:09:32;;;;;;;6.15;3.67;;;16.10;99.90;;;;;;5013601;28;20128;-68
2022/08/22 05:12:07;;;;;;;4.93;3.53;;;16.10;99.90;;;;;;5014342;28;20116;-69
2022/08/22 05:14:43;;;;;;;7.18;3.63;;;16.20;99.90;;;;;;5014367;28;20332;-68
2022/08/22 05:17:13;;;;;;;5.22;3.80;;;16.20;99.90;;;;;;5013647;28;20046;-69
2022/08/22 05:19:44;;;;;;;5.88;3.50;;;16.20;99.90;;;;;;5013400;28;20080;-68
2022/08/22 05:22:19;;;;;;;6.72;4.00;;;16.20;99.90;;;;;;5013688;28;20092;-68
2022/08/22 05:24:48;;;;;;;5.97;3.40;;;16.30;99.90;;;;;;5014368;28;20042;-69
2022/08/22 05:27:24;;;;;;;5.68;3.47;;;16.30;99.90;;;;;;5013332;28;20050;-68
2022/08/22 05:29:52;;;;;;;;;;;16.30;99.90;;;;;;5014605;28;20054;-68
2022/08/22 05:32:27;;;;;;;5.70;3.90;;;16.30;99.90;;;;;;5014150;28;19940;-68
2022/08/22 05:34:57;;;;;;;4.87;3.73;;;16.30;99.90;;;;;;5014222;28;20111;-68
2022/08/22 05:37:30;;;;;;;7.03;4.22;;;16.30;99.90;;;;;;5014115;28;20042;-69
2022/08/22 05:39:59;;;;;;;6.65;3.78;;;16.40;99.90;;;;;;5013960;28;20425;-69
2022/08/22 05:42:29;;;;;;;4.80;3.67;;;16.40;99.90;;;;;;5013307;28;20038;-69
2022/08/22 05:44:56;;;;;;;6.80;3.60;;;16.50;99.90;;;;;;5012809;28;20476;-69
2022/08/22 05:47:24;;;;;;;5.72;3.63;;;16.50;99.90;;;;;;5013818;28;20144;-69
2022/08/22 05:50:04;;;;;;;6.00;3.97;;;16.50;99.90;;;;;;5013322;28;20041;-68
2022/08/22 05:52:38;;;;;;;5.00;3.63;;;16.60;99.90;;;;;;5013266;28;20038;-69
2022/08/22 05:55:25;;;;;;;7.03;3.95;;;16.60;99.90;;;;;;5013588;28;20046;-69
2022/08/22 05:58:20;;;;;;;5.85;4.13;;;16.60;99.90;;;;;;5013692;28;20042;-69
2022/08/22 06:00:54;;;;;;;6.43;3.63;;;16.70;99.90;;;;;;5013686;28;20052;-70
2022/08/22 06:03:26;;;;;;;6.53;4.32;;;16.70;99.90;;;;;;5013061;28;20121;-69
2022/08/22 06:05:56;;;;;;;5.20;3.72;;;16.70;99.90;;;;;;5013085;28;20053;-69
2022/08/22 06:08:40;;;;;;;7.05;3.70;;;16.70;99.90;;;;;;5013044;28;20105;-69
2022/08/22 06:11:16;;;;;;;6.32;3.83;;;16.70;99.90;;;;;;5013088;28;20042;-69
2022/08/22 06:13:52;;;;;;;5.50;4.30;;;16.70;99.90;;;;;;5015681;28;20045;-68
2022/08/22 06:16:42;;;;;;;5.88;3.97;;;16.70;99.90;;;;;;5015972;28;20049;-68
2022/08/22 06:19:08;;;;;;;6.72;3.75;;;16.80;99.90;;;;;;5017196;28;20046;-64
2022/08/22 06:21:36;;;;;;;6.40;3.63;;;16.80;99.90;;;;;;5016916;28;20054;-64
2022/08/22 06:24:07;;;;;;;8.00;3.97;;;16.80;99.90;;;;;;5016903;28;20077;-65
2022/08/22 06:26:41;;;;;;;5.63;3.72;;;16.90;99.90;;;;;;5016389;28;20046;-64
2022/08/22 06:29:09;;;;;;;6.43;4.03;;;16.90;99.90;;;;;;5016876;28;20049;-64
2022/08/22 06:31:43;;;;;;;5.82;4.30;;;17.00;99.90;;;;;;5015041;28;20437;-64
2022/08/22 06:34:23;;;;;;;5.80;3.95;;;17.00;99.90;;;;;;5016169;28;20087;-64
2022/08/22 06:36:51;;;;;;;6.68;4.28;;;17.00;99.90;;;;;;5016977;28;20049;-65
2022/08/22 06:39:22;;;;;;;8.52;4.38;;;17.00;99.90;;;;;;5016057;28;20054;-66
2022/08/22 06:41:48;;;;;;;6.45;4.28;;;17.10;99.90;;;;;;5016266;28;20049;-65
2022/08/22 06:44:17;;;;;;;5.72;3.80;;;17.10;99.90;;;;;;5015894;28;20046;-65
2022/08/22 06:46:46;;;;;;;6.32;4.20;;;17.10;99.90;;;;;;5015256;28;20049;-65
2022/08/22 06:49:13;;;;;;;6.80;3.78;;;17.20;99.90;;;;;;5015930;28;20049;-65
2022/08/22 06:51:40;;;;;;;8.23;3.95;;;17.30;99.90;;;;;;5015957;28;20403;-65
2022/08/22 06:54:15;;;;;;;5.70;3.80;;;17.30;99.90;;;;;;5015853;28;20038;-65
2022/08/22 06:56:45;;;;;;;5.82;3.80;;;17.40;99.90;;;;;;5016244;28;20133;-65
2022/08/22 06:59:16;;;;;;;5.78;3.67;;;17.40;99.90;;;;;;5016508;28;20045;-65
2022/08/22 07:02:29;;;;;;;6.65;4.00;;;17.50;99.90;;;;;;5014734;28;20096;-65
2022/08/22 07:04:56;;;;;;;6.22;3.70;;;17.60;99.90;;;;;;4971814;28;20049;-65
2022/08/22 07:07:25;;;;;;;6.88;4.10;;;17.60;99.90;;;;;;5015520;28;20053;-65
2022/08/22 07:09:54;;;;;;;6.72;3.72;;;17.60;99.90;;;;;;5015792;28;20053;-65
2022/08/22 07:12:25;;;;;;;7.35;3.30;;;17.70;99.90;;;;;;5014557;28;20052;-65
2022/08/22 07:14:53;;;;;;;8.18;3.00;;;17.70;99.90;;;;;;5015553;28;20096;-65
2022/08/22 07:17:24;;;;;;;7.00;3.55;;;17.80;99.90;;;;;;5015156;28;20471;-65
2022/08/22 07:20:21;;;;;;;5.63;3.17;;;17.80;99.90;;;;;;5015360;28;20046;-65
2022/08/22 07:22:52;;;;;;;;;;;17.90;99.90;;;;;;5016131;28;20061;-64
2022/08/22 07:25:19;;;;;;;6.63;3.03;;;17.80;99.90;;;;;;5016146;28;20003;-64
2022/08/22 07:27:53;;;;;;;4.47;2.90;;;17.90;99.90;;;;;;5016534;28;20053;-65
2022/08/22 07:30:21;;;;;;;5.15;2.78;;;17.90;99.90;;;;;;5014664;28;20046;-65
2022/08/22 07:33:03;;;;;;;8.00;3.00;;;18.00;99.90;;;;;;5014963;28;20049;-65
2022/08/22 07:35:46;;;;;;;5.38;2.83;;;18.00;99.90;;;;;;5015435;28;20082;-66
2022/08/22 07:38:26;;;;;;;5.68;3.00;;;18.00;99.90;;;;;;5014934;28;20045;-65
2022/08/22 07:40:52;;;;;;;6.72;3.03;;;18.10;99.90;;;;;;5015464;28;20115;-65
2022/08/22 07:43:47;;;;;;;7.22;3.30;;;18.10;99.90;;;;;;5014889;28;20050;-65
2022/08/22 07:46:23;;;;;;;5.68;2.70;;;18.20;99.90;;;;;;5015232;28;20470;-65
2022/08/22 07:49:21;;;;;;;6.63;2.78;;;18.20;99.90;;;;;;5014778;28;20541;-64
2022/08/22 07:51:53;;;;;;;6.80;3.28;;;18.20;99.90;;;;;;5015271;28;20060;-64
2022/08/22 07:54:26;;;;;;;8.68;3.13;;;18.20;99.90;;;;;;5015078;28;20129;-65
2022/08/22 07:57:11;;;;;;;6.40;2.75;;;18.30;99.90;;;;;;5014605;28;20063;-64
2022/08/22 07:59:44;;;;;;;7.00;2.83;;;18.30;99.90;;;;;;5014799;28;20050;-64
2022/08/22 08:02:12;;;;;;;4.57;2.70;;;18.40;99.90;;;;;;5014772;28;20556;-65
2022/08/22 08:04:39;;;;;;;6.80;3.10;;;18.40;99.90;;;;;;5014354;28;20038;-65
2022/08/22 08:07:09;;;;;;;5.22;3.00;;;18.50;99.90;;;;;;5014305;28;20045;-65
2022/08/22 08:09:43;;;;;;;6.80;3.03;;;18.60;99.90;;;;;;5014618;28;20045;-65
2022/08/22 08:12:11;;;;;;;5.80;2.80;;;18.60;99.90;;;;;;5014856;28;20050;-64
2022/08/22 08:14:41;;;;;;;5.28;3.20;;;18.70;99.90;;;;;;5014005;28;20495;-65
2022/08/22 08:17:23;;;;;;;6.85;3.20;;;18.80;99.90;;;;;;5014949;28;20081;-64
2022/08/22 08:19:50;;;;;;;8.38;3.28;;;18.90;99.90;;;;;;5014966;28;20050;-65
2022/08/22 08:22:21;;;;;;;7.70;3.33;;;18.90;99.90;;;;;;5014506;28;20151;-64
2022/08/22 08:24:50;;;;;;;5.93;3.15;;;19.00;99.90;;;;;;5014560;28;20096;-64
2022/08/22 08:30:34;;;;;;;5.32;3.45;;;19.20;99.90;;;;;;5014114;28;20050;-65
2022/08/22 08:33:01;;;;;;;7.45;3.53;;;19.30;99.90;;;;;;5007847;28;20387;-65
2022/08/22 08:35:34;;;;;;;10.13;4.18;;;19.30;99.90;;;;;;5012831;28;20201;-64
2022/08/22 08:38:13;;;;;;;6.63;3.90;;;19.40;99.90;;;;;;5013700;28;20426;-65
2022/08/22 08:41:13;;;;;;;6.75;3.50;;;19.40;99.90;;;;;;5013816;28;20049;-64
2022/08/22 08:43:39;;;;;;;9.45;3.88;;;19.40;99.90;;;;;;5013719;28;20045;-64
2022/08/22 08:46:11;;;;;;;8.27;3.92;;;19.40;99.90;;;;;;5014333;28;20199;-64
2022/08/22 08:48:57;;;;;;;7.85;4.03;;;19.40;99.90;;;;;;5013793;28;20056;-64
2022/08/22 08:51:57;;;;;;;7.28;3.47;;;19.50;99.90;;;;;;5012702;28;20467;-64
2022/08/22 08:54:42;;;;;;;6.22;3.50;;;19.60;99.90;;;;;;5013019;28;20435;-64
2022/08/22 08:57:29;;;;;;;6.22;3.67;;;19.60;99.90;;;;;;5014004;28;20132;-64
2022/08/22 09:00:21;;;;;;;7.47;3.42;;;19.70;99.90;;;;;;5013860;28;20056;-65
2022/08/22 09:03:14;;;;;;;8.93;3.95;;;19.80;99.90;;;;;;5012364;28;20054;-65
2022/08/22 09:05:53;;;;;;;7.60;3.42;;;19.80;99.90;;;;;;5013790;28;20049;-66
2022/08/22 09:08:46;;;;;;;6.28;3.60;;;20.00;99.90;;;;;;5013584;28;20049;-66
2022/08/22 09:11:49;;;;;;;5.97;3.35;;;20.00;99.90;;;;;;5013411;28;20092;-65
2022/08/22 09:14:36;;;;;;;5.75;2.95;;;20.00;99.90;;;;;;5013375;28;20128;-65
2022/08/22 09:17:04;;;;;;;3.97;2.80;;;20.00;99.90;;;;;;5013807;28;20056;-66
2022/08/22 09:19:49;;;;;;;7.10;3.20;;;20.00;99.90;;;;;;5013325;28;20140;-66
2022/08/22 09:22:20;;;;;;;6.78;3.03;;;20.00;99.90;;;;;;5013162;28;20062;-66
2022/08/22 09:25:22;;;;;;;6.63;2.90;;;20.00;99.90;;;;;;5013655;28;20053;-65
2022/08/22 09:27:54;;;;;;;3.70;2.50;;;20.10;99.90;;;;;;5013803;28;20116;-66
2022/08/22 09:30:25;;;;;;;5.60;2.45;;;20.10;99.90;;;;;;5013263;28;20125;-65
2022/08/22 09:33:04;;;;;;;4.35;2.20;;;20.20;99.90;;;;;;5013980;28;20422;-66
2022/08/22 09:35:55;;;;;;;4.97;2.10;;;20.30;99.90;;;;;;5012840;28;20049;-66
2022/08/22 09:38:46;;;;;;;4.93;2.20;;;20.40;99.90;;;;;;5013730;28;20046;-66
2022/08/22 09:41:30;;;;;;;5.60;2.30;;;20.50;99.90;;;;;;5012496;28;20081;-65
2022/08/22 09:44:08;;;;;;;4.50;1.92;;;20.60;99.90;;;;;;5013364;28;20049;-66
2022/08/22 09:47:05;;;;;;;6.18;2.22;;;20.70;99.90;;;;;;5013659;28;20050;-66
2022/08/22 09:49:31;;;;;;;4.63;2.30;;;20.90;99.90;;;;;;5017468;28;20123;-67
2022/08/22 09:52:34;;;;;;;6.00;1.85;;;20.80;99.90;;;;;;5017689;28;20115;-66
2022/08/22 09:55:32;;;;;;;6.53;1.88;;;20.90;99.90;;;;;;5016801;28;20112;-67
2022/08/22 09:58:24;;;;;;;6.03;2.00;;;20.90;99.90;;;;;;5017098;28;20451;-65
2022/08/22 10:01:11;;;;;;;7.28;2.53;;;21.00;99.90;;;;;;5006624;28;20058;-67
2022/08/22 10:03:48;;;;;;;3.67;1.77;;;21.10;99.90;;;;;;5017164;28;20050;-65
2022/08/22 10:06:25;;;;;;;5.13;2.05;;;21.30;99.90;;;;;;5016644;28;20056;-65
2022/08/22 10:09:03;;;;;;;6.03;1.95;;;21.50;99.90;;;;;;5016899;28;20049;-66
2022/08/22 10:11:40;;;;;;;5.53;1.70;;;21.60;99.90;;;;;;5017043;28;20085;-66
2022/08/22 10:14:13;;;;;;;5.50;1.90;;;21.70;99.90;;;;;;5017026;28;20045;-66
2022/08/22 10:16:50;;;;;;;4.53;1.50;;;21.70;99.90;;;;;;5016399;28;20044;-66
2022/08/22 10:19:36;;;;;;;4.20;1.67;;;21.70;99.90;;;;;;5016508;28;20061;-66
2022/08/22 10:22:17;;;;;;;3.53;1.70;;;21.60;99.90;;;;;;5016641;28;20060;-66
2022/08/22 10:25:16;;;;;;;4.53;1.77;;;21.60;99.90;;;;;;5016215;28;20046;-66
2022/08/22 10:28:20;;;;;;;3.67;1.52;;;21.50;99.90;;;;;;5016282;28;20057;-66
2022/08/22 10:31:08;;;;;;;4.40;1.63;;;21.50;99.90;;;;;;4975796;28;20054;-65
2022/08/22 10:34:08;;;;;;;4.95;1.60;;;21.50;99.90;;;;;;5016052;28;20082;-65
2022/08/22 10:36:47;;;;;;;4.75;1.60;;;21.50;99.90;;;;;;5009900;28;20133;-65
2022/08/22 10:39:20;;;;;;;4.10;1.40;;;21.40;99.90;;;;;;5016713;28;20084;-65
2022/08/22 10:42:25;;;;;;;3.63;1.48;;;21.50;99.90;;;;;;5016814;28;20063;-65
2022/08/22 10:45:00;;;;;;;2.65;1.20;;;21.50;99.90;;;;;;5001680;28;20073;-65
2022/08/22 10:47:43;;;;;;;3.75;1.40;;;21.50;99.90;;;;;;5016218;28;20168;-65
2022/08/22 10:50:17;;;;;;;3.40;1.27;;;21.60;99.90;;;;;;5015874;28;20134;-65
2022/08/22 10:52:50;;;;;;;6.07;1.67;;;21.70;99.90;;;;;;5015108;28;20133;-65
2022/08/22 10:55:22;;;;;;;4.07;1.55;;;21.80;99.90;;;;;;5016193;28;20048;-65
2022/08/22 10:57:53;;;;;;;4.25;1.23;;;21.90;99.90;;;;;;5015772;28;20128;-65
2022/08/22 11:00:41;;;;;;;4.15;1.30;;;22.00;99.90;;;;;;5014761;28;20053;-65
2022/08/22 11:03:40;;;;;;;3.53;1.38;;;22.10;99.90;;;;;;5002626;28;20558;-65
2022/08/22 11:06:16;;;;;;;4.57;1.52;;;22.20;99.90;;;;;;5015830;28;20084;-66
2022/08/22 11:09:20;;;;;;;4.93;1.77;;;22.40;99.90;;;;;;5015541;28;20115;-66
2022/08/22 11:11:55;;;;;;;3.63;1.42;;;22.40;99.90;;;;;;5009543;28;20595;-66
2022/08/22 11:14:54;;;;;;;3.63;1.35;;;22.40;99.90;;;;;;5016125;28;20128;-66
2022/08/22 11:17:26;;;;;;;4.10;1.60;;;22.40;99.90;;;;;;5015567;28;20363;-65
2022/08/22 11:20:07;;;;;;;4.55;1.75;;;22.50;99.90;;;;;;5015295;28;20181;-65
2022/08/22 11:23:02;;;;;;;3.50;1.65;;;22.60;99.90;;;;;;5015610;28;20100;-65
2022/08/22 11:25:41;;;;;;;3.22;1.60;;;22.60;99.90;;;;;;5013943;28;20050;-66
2022/08/22 11:28:31;;;;;;;3.40;1.60;;;22.60;99.90;;;;;;5015217;28;20121;-66
2022/08/22 11:31:28;;;;;;;5.97;1.83;;;22.70;99.90;;;;;;5015091;28;20046;-66
2022/08/22 11:34:09;;;;;;;3.65;1.67;;;22.80;99.90;;;;;;5015840;28;20147;-66
2022/08/22 11:36:43;;;;;;;4.00;1.60;;;22.90;99.90;;;;;;5015052;28;20053;-66
2022/08/22 11:39:23;;;;;;;4.25;1.67;;;22.90;99.90;;;;;;5015530;28;20057;-66
2022/08/22 11:41:57;;;;;;;4.57;1.60;;;22.90;99.90;;;;;;5014936;28;20403;-66
2022/08/22 11:44:35;;;;;;;4.53;1.52;;;22.80;99.90;;;;;;5014746;28;20046;-66
2022/08/22 11:47:06;;;;;;;6.18;2.08;;;22.70;99.90;;;;;;5014913;28;20084;-66
2022/08/22 11:49:45;;;;;;;5.18;2.10;;;22.70;99.90;;;;;;5014892;28;20048;-66
2022/08/22 11:52:24;;;;;;;7.28;2.33;;;22.60;99.90;;;;;;5015303;28;20046;-66
2022/08/22 11:55:20;;;;;;;4.13;2.00;;;22.60;99.90;;;;;;5013835;28;20376;-66
2022/08/22 11:58:05;;;;;;;4.37;1.70;;;22.70;99.90;;;;;;5015012;28;20045;-66
2022/08/22 12:00:43;;;;;;;3.60;2.23;;;22.70;99.90;;;;;;5014664;28;20050;-66
2022/08/22 12:03:31;;;;;;;4.47;1.90;;;22.70;99.90;;;;;;5014977;28;20104;-66
2022/08/22 12:06:06;;;;;;;4.22;1.90;;;22.80;99.90;;;;;;5015059;28;20112;-66
2022/08/22 12:08:32;;;;;;;4.78;1.95;;;22.90;99.90;;;;;;5014335;28;20053;-66
2022/08/22 12:11:24;;;;;;;6.05;2.00;;;22.90;99.90;;;;;;5013730;28;20498;-66
2022/08/22 12:14:12;;;;;;;4.60;2.03;;;23.10;99.90;;;;;;5013965;28;20054;-66
2022/08/22 12:16:55;;;;;;;4.20;2.03;;;23.20;99.90;;;;;;5014513;28;20513;-66
2022/08/22 12:19:45;;;;;;;4.78;2.10;;;23.30;99.90;;;;;;5014509;28;20096;-66
2022/08/22 12:22:16;;;;;;;4.90;2.00;;;23.40;99.90;;;;;;5013525;28;20085;-67
2022/08/22 12:25:17;;;;;;;3.67;1.92;;;23.50;99.90;;;;;;5014034;28;20046;-66
2022/08/22 12:27:56;;;;;;;4.90;2.03;;;23.60;99.90;;;;;;4973798;28;20506;-66
2022/08/22 12:30:34;;;;;;;4.18;1.85;;;23.60;99.90;;;;;;5013998;28;20049;-66
2022/08/22 12:33:31;;;;;;;3.70;1.80;;;23.60;99.90;;;;;;5014067;28;20046;-66
2022/08/22 12:36:22;;;;;;;3.85;1.70;;;23.60;99.90;;;;;;5014763;28;20049;-66
2022/08/22 12:39:06;;;;;;;6.90;2.10;;;23.60;99.90;;;;;;5013970;28;20107;-65
2022/08/22 12:41:53;;;;;;;4.18;1.90;;;23.70;99.90;;;;;;5013883;28;20049;-66
2022/08/22 12:45:10;;;;;;;4.00;1.88;;;23.70;99.90;;;;;;5013715;28;20045;-66
2022/08/22 12:47:59;;;;;;;;;;;23.80;99.90;;;;;;4973901;28;20058;-66
2022/08/22 12:50:36;;;;;;;4.10;1.70;;;23.80;99.90;;;;;;4976745;28;19928;-66
2022/08/22 12:53:32;;;;;;;6.03;1.80;;;23.80;99.90;;;;;;5014224;28;20435;-66
2022/08/22 12:56:12;;;;;;;4.25;2.00;;;23.90;99.90;;;;;;5013590;28;20049;-65
2022/08/22 12:59:03;;;;;;;3.92;2.00;;;23.90;99.90;;;;;;5014032;28;20042;-65
2022/08/22 13:01:44;;;;;;;3.88;1.80;;;23.80;99.90;;;;;;5013473;28;20050;-65
2022/08/22 13:04:21;;;;;;;4.43;1.63;;;23.80;99.90;;;;;;5013468;28;20081;-65
2022/08/22 13:07:06;;;;;;;3.97;1.83;;;23.70;99.90;;;;;;5014061;28;20402;-65
2022/08/22 13:09:39;;;;;;;4.93;2.10;;;23.70;99.90;;;;;;5012778;28;20042;-65
2022/08/22 13:12:30;;;;;;;3.63;1.60;;;23.70;99.90;;;;;;5013406;28;20041;-65
2022/08/22 13:15:25;;;;;;;4.65;1.88;;;23.80;99.90;;;;;;5002207;28;20478;-64
2022/08/22 13:17:51;;;;;;;3.35;1.90;;;23.90;99.90;;;;;;4999413;28;20371;-65
2022/08/22 13:20:25;;;;;;;5.20;1.80;;;24.00;99.90;;;;;;5013332;28;20057;-65
2022/08/22 13:22:52;;;;;;;4.65;1.70;;;24.10;99.90;;;;;;5018935;28;20494;-64
2022/08/22 13:25:21;;;;;;;4.93;2.10;;;24.10;99.90;;;;;;5020550;28;20064;-65
2022/08/22 13:28:09;;;;;;;5.38;1.70;;;24.10;99.90;;;;;;5019894;28;20049;-65
2022/08/22 13:30:39;;;;;;;5.97;2.00;;;24.20;99.90;;;;;;5020233;28;20521;-65
2022/08/22 13:33:09;;;;;;;3.50;1.70;;;24.20;99.90;;;;;;5019343;28;20050;-66
2022/08/22 13:35:35;;;;;;;2.90;1.70;;;24.20;99.90;;;;;;5019640;28;20136;-66
2022/08/22 13:38:16;;;;;;;4.75;1.92;;;24.20;99.90;;;;;;5018766;28;20088;-65
2022/08/22 13:40:46;;;;;;;5.68;2.00;;;24.20;99.90;;;;;;5020283;28;20100;-66
2022/08/22 13:43:19;;;;;;;5.20;2.00;;;24.20;99.90;;;;;;5019881;28;20038;-66
2022/08/22 13:45:58;;;;;;;4.85;1.75;;;24.10;99.90;;;;;;5020215;28;20056;-66
2022/08/22 13:48:43;;;;;;;3.90;1.70;;;24.10;99.90;;;;;;5020118;28;20058;-65
2022/08/22 13:51:25;;;;;;;4.43;1.80;;;24.00;99.90;;;;;;5019704;28;20089;-66
2022/08/22 13:54:18;;;;;;;4.47;1.90;;;24.00;99.90;;;;;;5020085;28;20092;-66
2022/08/22 13:56:59;;;;;;;4.82;1.80;;;24.00;99.90;;;;;;5019541;28;20058;-66
2022/08/22 13:59:42;;;;;;;3.38;1.63;;;24.00;99.90;;;;;;5019783;28;20056;-66
2022/08/22 14:02:37;;;;;;;4.57;1.65;;;24.00;99.90;;;;;;5020187;28;20151;-67
2022/08/22 14:05:12;;;;;;;4.05;1.65;;;24.00;99.90;;;;;;5020195;28;20069;-66
2022/08/22 14:07:51;;;;;;;3.03;1.30;;;24.00;99.90;;;;;;5020292;28;20111;-66